Terminal Aerodrome Forecast
Issued by NWS

Home | Current Version | Previous Version | Text Only | Print | Product List | Glossary On
Versions: 1 2 3 4 5 6 7 8 9 10 11 12 13
000
FTUS43 KLSX 191100
TAFUIN
TAF
KUIN 191134Z 1912/2012 06005KT P6SM SCT060 BKN150
     FM191500 VRB05KT P6SM -SHRA SCT050 BKN120
      TEMPO 1916/1920 5SM -SHRA BKN040 OVC080
     FM192100 28006KT P6SM VCTS SCT050CB BKN100
     FM200300 31010KT P6SM SCT040 BKN080
     FM200600 31012G20KT P6SM VCSH BKN025=

USA.gov is the U.S. government's official web portal to all federal, state and local government web resources and services.